createdAt,value
2022-12-15T00:02:13.687Z,5.15
2022-12-15T00:04:59.147Z,5.11
2022-12-15T00:07:44.188Z,5.16
2022-12-15T00:10:30.128Z,5.21
2022-12-15T00:13:15.512Z,5.23
2022-12-15T00:16:00.602Z,5.31
2022-12-15T00:18:46.367Z,5.35
2022-12-15T00:21:31.511Z,5.32
2022-12-15T00:24:16.707Z,5.30
2022-12-15T00:27:01.822Z,5.36
2022-12-15T00:29:46.904Z,5.41
2022-12-15T00:32:32.413Z,5.45
2022-12-15T00:35:17.744Z,5.44
2022-12-15T00:38:02.820Z,5.46
2022-12-15T00:40:29.662Z,5.43
2022-12-15T00:42:56.454Z,5.49
2022-12-15T00:45:43.070Z,5.54
2022-12-15T00:48:09.867Z,5.60
2022-12-15T00:50:54.947Z,5.64
2022-12-15T00:53:41.500Z,5.56
2022-12-15T00:56:29.108Z,5.48
2022-12-15T00:59:14.382Z,5.47
2022-12-15T01:02:00.150Z,5.32
2022-12-15T01:04:46.563Z,4.90
2022-12-15T01:07:31.796Z,4.69
2022-12-15T01:10:17.504Z,4.46
2022-12-15T01:13:02.667Z,4.24
2022-12-15T01:15:47.894Z,4.06
2022-12-15T01:18:33.139Z,3.84
2022-12-15T01:21:01.296Z,3.65
2022-12-15T01:23:28.503Z,3.60
2022-12-15T01:25:56.256Z,3.52
2022-12-15T01:28:23.751Z,3.48
2022-12-15T01:30:50.651Z,3.43
2022-12-15T01:33:18.306Z,3.36
2022-12-15T01:35:45.440Z,3.27
2022-12-15T01:38:12.271Z,3.21
2022-12-15T01:40:50.495Z,3.14
2022-12-15T01:43:18.737Z,3.18
2022-12-15T01:46:02.217Z,3.15
2022-12-15T01:48:29.017Z,3.10
2022-12-15T01:51:01.609Z,3.09
2022-12-15T01:53:32.490Z,3.11
2022-12-15T01:56:00.080Z,3.11
2022-12-15T01:58:27.190Z,3.16
2022-12-15T02:00:54.224Z,3.21
2022-12-15T02:03:21.139Z,3.13
2022-12-15T02:05:48.556Z,3.12
2022-12-15T02:08:15.355Z,3.02
2022-12-15T02:10:50.805Z,3.05
2022-12-15T02:13:44.987Z,3.00
2022-12-15T02:16:11.853Z,2.81
2022-12-15T02:18:47.873Z,2.82
2022-12-15T02:21:18.744Z,2.99
2022-12-15T02:23:51.689Z,2.98
2022-12-15T02:26:25.690Z,3.09
2022-12-15T02:29:02.118Z,3.13
2022-12-15T02:31:51.180Z,3.52
2022-12-15T02:34:23.687Z,3.71
2022-12-15T02:36:55.192Z,3.86
2022-12-15T02:39:23.555Z,3.85
2022-12-15T02:41:53.131Z,3.92
2022-12-15T02:44:23.207Z,3.91
2022-12-15T02:47:10.193Z,4.03
2022-12-15T02:49:36.966Z,4.21
2022-12-15T02:52:26.908Z,4.34
2022-12-15T02:55:13.370Z,4.50
2022-12-15T02:57:44.811Z,4.62
2022-12-15T03:00:12.814Z,4.71
2022-12-15T03:02:41.694Z,4.64
2022-12-15T03:05:09.216Z,4.48
2022-12-15T03:07:35.964Z,4.18
2022-12-15T03:10:03.866Z,4.02
2022-12-15T03:12:30.934Z,3.78
2022-12-15T03:14:58.562Z,3.52
2022-12-15T03:17:25.423Z,3.42
2022-12-15T03:19:52.327Z,3.31
2022-12-15T03:22:19.320Z,3.28
2022-12-15T03:24:46.138Z,3.17
2022-12-15T03:27:13.091Z,3.12
2022-12-15T03:29:40.104Z,3.05
2022-12-15T03:32:07.250Z,3.06
2022-12-15T03:34:34.199Z,2.90
2022-12-15T03:37:01.486Z,2.88
2022-12-15T03:39:28.336Z,2.78
2022-12-15T03:41:55.216Z,2.75
2022-12-15T03:44:22.615Z,2.61
2022-12-15T03:46:49.482Z,2.64
2022-12-15T03:49:16.431Z,2.68
2022-12-15T03:51:43.247Z,2.76
2022-12-15T03:54:10.057Z,2.65
2022-12-15T03:56:37.181Z,2.58
2022-12-15T03:59:04.083Z,2.54
2022-12-15T04:01:32.285Z,2.58
2022-12-15T04:04:01.225Z,2.60
2022-12-15T04:06:28.971Z,2.60
2022-12-15T04:08:55.853Z,2.60
2022-12-15T04:11:22.869Z,2.52
2022-12-15T04:13:50.217Z,2.61
2022-12-15T04:16:20.159Z,2.52
2022-12-15T04:19:07.839Z,2.51
2022-12-15T04:21:34.794Z,2.53
2022-12-15T04:24:20.155Z,2.53
2022-12-15T04:27:05.573Z,2.52
2022-12-15T04:29:50.649Z,2.53
2022-12-15T04:32:35.751Z,2.47
2022-12-15T04:35:20.763Z,2.52
2022-12-15T04:38:06.032Z,2.39
2022-12-15T04:40:51.687Z,2.45
2022-12-15T04:43:37.133Z,2.44
2022-12-15T04:46:22.167Z,2.45
2022-12-15T04:49:07.753Z,2.48
2022-12-15T04:51:53.738Z,2.48
2022-12-15T04:54:38.719Z,2.49
2022-12-15T04:57:23.883Z,2.58
2022-12-15T05:00:09.092Z,2.56
2022-12-15T05:02:54.399Z,2.62
2022-12-15T05:05:39.355Z,2.64
2022-12-15T05:08:24.481Z,2.64
2022-12-15T05:11:09.754Z,2.65
2022-12-15T05:13:54.786Z,2.62
2022-12-15T05:16:40.561Z,2.63
2022-12-15T05:19:25.743Z,2.48
2022-12-15T05:22:11.020Z,2.47
2022-12-15T05:24:56.374Z,2.47
2022-12-15T05:27:41.751Z,2.49
2022-12-15T05:30:29.684Z,2.35
2022-12-15T05:32:56.448Z,2.32
2022-12-15T05:35:23.410Z,2.35
2022-12-15T05:37:50.182Z,2.32
2022-12-15T05:40:17.068Z,2.35
2022-12-15T05:42:43.853Z,2.34
2022-12-15T05:45:17.021Z,2.44
2022-12-15T05:47:43.899Z,2.42
2022-12-15T05:50:10.685Z,2.40
2022-12-15T05:52:37.653Z,2.42
2022-12-15T05:55:04.556Z,2.38
2022-12-15T05:57:31.440Z,2.40
2022-12-15T05:59:58.385Z,2.45
2022-12-15T06:02:25.226Z,2.48
2022-12-15T06:04:52.100Z,2.51
2022-12-15T06:07:19.490Z,2.53
2022-12-15T06:09:46.544Z,2.54
2022-12-15T06:12:13.334Z,2.57
2022-12-15T06:14:40.099Z,2.45
2022-12-15T06:17:07.080Z,2.39
2022-12-15T06:19:33.861Z,2.39
2022-12-15T06:22:00.759Z,2.47
2022-12-15T06:24:27.676Z,2.49
2022-12-15T06:26:54.519Z,2.50
2022-12-15T06:29:21.581Z,2.46
2022-12-15T06:31:48.510Z,2.40
2022-12-15T06:34:16.124Z,2.40
2022-12-15T06:36:43.021Z,2.45
2022-12-15T06:39:11.958Z,2.45
2022-12-15T06:41:39.375Z,2.46
2022-12-15T06:44:06.116Z,2.51
2022-12-15T06:46:35.182Z,2.53
2022-12-15T06:49:02.172Z,2.52
2022-12-15T06:51:29.300Z,2.59
2022-12-15T06:53:56.661Z,2.66
2022-12-15T06:56:30.702Z,2.65
2022-12-15T06:59:00.001Z,2.70
2022-12-15T07:01:26.927Z,2.76
2022-12-15T07:03:54.605Z,2.88
2022-12-15T07:06:21.818Z,2.96
2022-12-15T07:08:52.496Z,2.98
2022-12-15T07:11:21.189Z,3.05
2022-12-15T07:13:54.652Z,3.06
2022-12-15T07:16:22.587Z,3.09
2022-12-15T07:18:49.882Z,3.14
2022-12-15T07:21:17.021Z,3.26
2022-12-15T07:23:54.827Z,3.30
2022-12-15T07:26:23.856Z,3.35
2022-12-15T07:28:50.861Z,3.40
2022-12-15T07:31:18.284Z,3.51
2022-12-15T07:33:45.138Z,3.52
2022-12-15T07:36:12.161Z,3.55
2022-12-15T07:38:39.042Z,3.62
2022-12-15T07:41:07.089Z,3.66
2022-12-15T07:43:34.416Z,3.73
2022-12-15T07:46:02.188Z,3.77
2022-12-15T07:48:29.492Z,3.92
2022-12-15T07:51:05.192Z,4.02
2022-12-15T07:53:35.583Z,3.97
2022-12-15T07:56:08.626Z,4.13
2022-12-15T07:58:36.749Z,4.24
2022-12-15T08:01:05.245Z,4.28
2022-12-15T08:03:32.691Z,4.35
2022-12-15T08:06:04.337Z,4.47
2022-12-15T08:08:31.726Z,4.60
2022-12-15T08:10:59.012Z,4.64
2022-12-15T08:14:00.700Z,4.78
2022-12-15T08:16:13.373Z,4.73
2022-12-15T08:18:40.183Z,4.83
2022-12-15T08:21:08.468Z,5.01
2022-12-15T08:23:35.559Z,4.96
2022-12-15T08:26:06.106Z,4.93
2022-12-15T08:28:33.463Z,4.96
2022-12-15T08:31:04.236Z,5.06
2022-12-15T08:33:31.318Z,5.04
2022-12-15T08:36:03.337Z,5.12
2022-12-15T08:38:30.797Z,5.16
2022-12-15T08:40:57.559Z,5.26
2022-12-15T08:43:24.759Z,5.35
2022-12-15T08:45:51.626Z,5.34
2022-12-15T08:48:18.379Z,5.41
2022-12-15T08:50:45.963Z,5.38
2022-12-15T08:56:07.358Z,5.51
2022-12-15T08:58:34.539Z,5.49
2022-12-15T09:01:02.344Z,5.48
2022-12-15T09:03:29.877Z,5.65
2022-12-15T09:05:57.879Z,5.61
2022-12-15T09:08:24.728Z,5.68
2022-12-15T09:10:52.455Z,5.75
2022-12-15T09:13:19.587Z,5.80
2022-12-15T09:16:08.989Z,5.83
2022-12-15T09:18:34.147Z,5.91
2022-12-15T09:21:05.034Z,5.92
2022-12-15T09:23:32.521Z,5.92
2022-12-15T09:26:02.687Z,5.93
2022-12-15T09:28:29.607Z,6.04
2022-12-15T09:31:07.020Z,6.08
2022-12-15T09:33:34.307Z,6.20
2022-12-15T09:36:01.801Z,6.23
2022-12-15T09:38:28.680Z,6.28
2022-12-15T09:40:55.564Z,6.29
2022-12-15T09:43:46.045Z,6.31
2022-12-15T09:46:23.453Z,6.41
2022-12-15T09:48:51.563Z,6.48
2022-12-15T09:51:18.798Z,6.58
2022-12-15T09:53:55.494Z,6.63
2022-12-15T09:56:26.458Z,6.58
2022-12-15T09:59:18.124Z,6.63
2022-12-15T10:02:07.992Z,6.75
2022-12-15T10:04:43.692Z,6.93
2022-12-15T10:07:15.308Z,7.05
2022-12-15T10:09:42.071Z,7.19
2022-12-15T10:12:14.684Z,7.29
2022-12-15T10:15:01.304Z,7.34
2022-12-15T10:17:36.503Z,7.31
2022-12-15T10:20:13.855Z,7.40
2022-12-15T10:22:40.747Z,7.50
2022-12-15T10:25:33.851Z,7.60
2022-12-15T10:28:09.785Z,7.71
2022-12-15T10:30:44.095Z,7.79
2022-12-15T10:33:17.425Z,7.93
2022-12-15T10:35:44.455Z,7.96
2022-12-15T10:38:34.585Z,8.07
2022-12-15T10:41:22.021Z,8.22
2022-12-15T10:43:52.328Z,8.43
2022-12-15T10:46:20.719Z,8.53
2022-12-15T10:48:50.686Z,8.61
2022-12-15T10:51:22.440Z,8.70
2022-12-15T10:53:54.027Z,8.79
2022-12-15T10:56:23.004Z,8.91
2022-12-15T10:58:53.807Z,8.98
2022-12-15T11:01:24.442Z,8.90
2022-12-15T11:03:53.128Z,8.90
2022-12-15T11:06:21.955Z,8.92
2022-12-15T11:08:50.232Z,8.91
2022-12-15T11:11:50.583Z,8.93
2022-12-15T11:14:27.563Z,8.87
2022-12-15T11:16:56.021Z,8.85
2022-12-15T11:19:28.692Z,8.81
2022-12-15T11:22:00.138Z,8.80
2022-12-15T11:24:35.469Z,8.80
2022-12-15T11:27:10.232Z,8.82
2022-12-15T11:29:50.221Z,8.77
2022-12-15T11:32:19.866Z,8.78
2022-12-15T11:34:47.562Z,8.85
2022-12-15T11:37:24.397Z,8.88
2022-12-15T11:40:09.638Z,8.93
2022-12-15T11:42:55.121Z,9.03
2022-12-15T11:45:45.382Z,9.12
2022-12-15T11:48:14.269Z,9.25
2022-12-15T11:51:02.950Z,9.21
2022-12-15T11:53:49.431Z,9.18
2022-12-15T11:56:28.420Z,9.21
2022-12-15T11:59:14.281Z,9.26
2022-12-15T12:01:55.407Z,9.30
2022-12-15T12:04:37.694Z,9.36
2022-12-15T12:07:23.498Z,9.31
2022-12-15T12:10:16.698Z,9.31
2022-12-15T12:12:47.618Z,9.29
2022-12-15T12:15:30.311Z,9.31
2022-12-15T12:18:23.324Z,9.39
2022-12-15T12:20:53.296Z,9.42
2022-12-15T12:23:27.854Z,9.46
2022-12-15T12:26:03.827Z,9.48
2022-12-15T12:28:42.897Z,9.56
2022-12-15T12:31:19.509Z,9.59
2022-12-15T12:33:49.250Z,9.63
2022-12-15T12:36:16.905Z,9.70
2022-12-15T12:38:50.562Z,9.70
2022-12-15T12:41:39.764Z,9.71
2022-12-15T12:44:15.885Z,9.75
2022-12-15T12:46:49.136Z,9.79
2022-12-15T12:49:22.795Z,9.75
2022-12-15T12:51:54.058Z,9.84
2022-12-15T12:54:34.047Z,9.80
2022-12-15T12:57:01.276Z,9.82
2022-12-15T12:59:28.010Z,9.84
2022-12-15T13:01:55.705Z,9.77
2022-12-15T13:04:28.465Z,9.66
2022-12-15T13:06:55.265Z,9.41
2022-12-15T13:09:23.753Z,9.40
2022-12-15T13:11:53.616Z,9.38
2022-12-15T13:14:46.770Z,9.30
2022-12-15T13:17:29.554Z,9.19
2022-12-15T13:19:59.436Z,9.11
2022-12-15T13:22:31.791Z,8.90
2022-12-15T13:24:58.850Z,8.75
2022-12-15T13:27:34.758Z,8.69
2022-12-15T13:30:02.811Z,8.56
2022-12-15T13:32:33.036Z,8.34
2022-12-15T13:35:20.114Z,8.25
2022-12-15T13:37:49.108Z,8.18
2022-12-15T13:40:34.758Z,8.06
2022-12-15T13:43:04.864Z,7.94
2022-12-15T13:45:33.528Z,7.80
2022-12-15T13:48:01.161Z,7.72
2022-12-15T13:50:39.541Z,7.66
2022-12-15T13:53:19.460Z,7.62
2022-12-15T13:55:59.769Z,7.57
2022-12-15T13:58:28.077Z,7.48
2022-12-15T14:00:55.657Z,7.35
2022-12-15T14:03:22.653Z,7.26
2022-12-15T14:05:51.228Z,7.22
2022-12-15T14:08:18.905Z,7.12
2022-12-15T14:10:50.896Z,7.04
2022-12-15T14:13:22.771Z,6.99
2022-12-15T14:15:53.513Z,6.95
2022-12-15T14:18:24.890Z,6.91
2022-12-15T14:20:51.755Z,6.85
2022-12-15T14:23:19.661Z,6.75
2022-12-15T14:25:56.265Z,6.69
2022-12-15T14:28:27.131Z,6.61
2022-12-15T14:30:54.228Z,6.55
2022-12-15T14:33:25.183Z,6.45
2022-12-15T14:35:56.525Z,6.37
2022-12-15T14:38:23.318Z,6.29
2022-12-15T14:40:52.281Z,6.22
2022-12-15T14:43:24.136Z,6.13
2022-12-15T14:45:54.513Z,6.01
2022-12-15T14:48:42.814Z,6.00
2022-12-15T14:51:11.320Z,5.92
2022-12-15T14:53:40.063Z,5.84
2022-12-15T14:56:15.848Z,5.76
2022-12-15T14:58:42.809Z,5.69
2022-12-15T15:01:22.513Z,5.65
2022-12-15T15:03:56.752Z,5.51
2022-12-15T15:06:28.942Z,5.42
2022-12-15T15:08:55.788Z,5.31
2022-12-15T15:11:29.946Z,5.22
2022-12-15T15:13:59.240Z,5.16
2022-12-15T15:16:26.347Z,5.12
2022-12-15T15:18:54.858Z,5.01
2022-12-15T15:21:23.822Z,4.93
2022-12-15T15:24:23.082Z,4.89
2022-12-15T15:26:49.993Z,4.83
2022-12-15T15:29:35.083Z,4.78
2022-12-15T15:32:06.192Z,4.70
2022-12-15T15:34:32.958Z,4.60
2022-12-15T15:37:01.751Z,4.53
2022-12-15T15:39:28.571Z,4.44
2022-12-15T15:41:55.528Z,4.39
2022-12-15T15:44:22.398Z,4.33
2022-12-15T15:46:50.865Z,4.31
2022-12-15T15:49:19.632Z,4.31
2022-12-15T15:51:46.785Z,4.30
2022-12-15T15:54:16.825Z,4.24
2022-12-15T15:56:44.184Z,4.19
2022-12-15T15:59:15.338Z,4.24
2022-12-15T16:01:42.946Z,4.19
2022-12-15T16:04:10.063Z,4.16
2022-12-15T16:06:39.681Z,4.09
2022-12-15T16:09:13.014Z,4.10
2022-12-15T16:11:39.768Z,4.04
2022-12-15T16:14:11.308Z,3.98
2022-12-15T16:16:38.419Z,3.94
2022-12-15T16:19:05.209Z,3.88
2022-12-15T16:21:32.389Z,3.88
2022-12-15T16:23:59.417Z,3.87
2022-12-15T16:26:28.239Z,3.83
2022-12-15T16:28:55.406Z,3.78
2022-12-15T16:31:41.971Z,3.75
2022-12-15T16:34:10.663Z,3.75
2022-12-15T16:36:41.069Z,3.75
2022-12-15T16:39:22.036Z,3.73
2022-12-15T16:41:48.888Z,3.69
2022-12-15T16:44:15.719Z,3.69
2022-12-15T16:46:45.320Z,3.68
2022-12-15T16:49:12.477Z,3.66
2022-12-15T16:51:40.420Z,3.65
2022-12-15T16:54:07.619Z,3.54
2022-12-15T16:56:34.394Z,3.58
2022-12-15T16:59:32.659Z,3.61
2022-12-15T17:01:48.574Z,3.48
2022-12-15T17:04:16.819Z,3.54
2022-12-15T17:06:43.810Z,3.50
2022-12-15T17:09:16.433Z,3.39
2022-12-15T17:11:43.377Z,3.44
2022-12-15T17:14:10.635Z,3.38
2022-12-15T17:16:37.403Z,3.33
2022-12-15T17:19:04.461Z,3.36
2022-12-15T17:21:35.775Z,3.29
2022-12-15T17:24:06.820Z,3.23
2022-12-15T17:26:35.877Z,3.21
2022-12-15T17:29:08.136Z,3.25
2022-12-15T17:31:36.139Z,3.23
2022-12-15T17:34:22.112Z,3.18
2022-12-15T17:36:48.903Z,3.17
2022-12-15T17:39:15.933Z,3.16
2022-12-15T17:41:59.196Z,3.23
2022-12-15T17:44:33.460Z,3.21
2022-12-15T17:47:01.172Z,3.13
2022-12-15T17:49:34.703Z,3.08
2022-12-15T17:52:03.500Z,3.09
2022-12-15T17:54:30.610Z,3.09
2022-12-15T17:56:57.340Z,3.09
2022-12-15T17:59:24.146Z,3.07
2022-12-15T18:01:52.372Z,3.06
2022-12-15T18:04:19.351Z,3.04
2022-12-15T18:06:46.133Z,3.09
2022-12-15T18:09:17.709Z,3.00
2022-12-15T18:11:47.024Z,2.98
2022-12-15T18:14:15.289Z,2.92
2022-12-15T18:16:42.564Z,2.93
2022-12-15T18:19:09.630Z,2.87
2022-12-15T18:21:36.867Z,2.89
2022-12-15T18:24:03.987Z,2.93
2022-12-15T18:26:38.171Z,2.95
2022-12-15T18:29:15.103Z,2.89
2022-12-15T18:31:42.339Z,2.85
2022-12-15T18:34:19.377Z,2.85
2022-12-15T18:36:46.332Z,2.83
2022-12-15T18:39:16.393Z,2.85
2022-12-15T18:41:43.171Z,2.81
2022-12-15T18:44:23.274Z,2.75
2022-12-15T18:46:50.064Z,2.75
2022-12-15T18:49:18.007Z,2.75
2022-12-15T18:51:46.684Z,2.76
2022-12-15T18:54:16.280Z,2.78
2022-12-15T18:56:43.042Z,2.82
2022-12-15T18:59:16.042Z,2.93
2022-12-15T19:01:43.900Z,2.87
2022-12-15T19:04:10.915Z,2.84
2022-12-15T19:06:38.543Z,2.74
2022-12-15T19:09:12.190Z,2.71
2022-12-15T19:11:39.053Z,2.73
2022-12-15T19:14:27.577Z,2.74
2022-12-15T19:17:13.026Z,2.79
2022-12-15T19:19:58.314Z,2.80
2022-12-15T19:22:28.262Z,2.80
2022-12-15T19:24:55.094Z,2.88
2022-12-15T19:27:26.467Z,2.82
2022-12-15T19:29:54.629Z,2.75
2022-12-15T19:32:21.938Z,2.79
2022-12-15T19:34:48.997Z,2.77
2022-12-15T19:37:24.367Z,2.74
2022-12-15T19:39:51.874Z,2.79
2022-12-15T19:42:21.440Z,2.80
2022-12-15T19:44:48.872Z,2.81
2022-12-15T19:47:15.747Z,2.85
2022-12-15T19:49:43.254Z,2.85
2022-12-15T19:52:17.404Z,2.84
2022-12-15T19:54:44.883Z,2.83
2022-12-15T19:57:29.856Z,2.92
2022-12-15T19:59:58.954Z,2.88
2022-12-15T20:02:30.730Z,2.87
2022-12-15T20:05:00.326Z,2.96
2022-12-15T20:07:32.330Z,2.90
2022-12-15T20:10:01.866Z,2.89
2022-12-15T20:12:30.770Z,2.94
2022-12-15T20:15:32.196Z,2.90
2022-12-15T20:18:10.135Z,2.97
2022-12-15T20:20:58.041Z,2.91
2022-12-15T20:24:23.902Z,2.83
2022-12-15T20:26:53.029Z,2.82
2022-12-15T20:29:26.483Z,2.79
2022-12-15T20:31:55.419Z,2.77
2022-12-15T20:34:24.927Z,2.77
2022-12-15T20:36:54.108Z,2.78
2022-12-15T20:39:27.379Z,2.82
2022-12-15T20:41:54.579Z,2.82
2022-12-15T20:44:21.452Z,2.81
2022-12-15T20:46:48.470Z,2.86
2022-12-15T20:49:17.177Z,2.88
2022-12-15T20:51:44.137Z,2.83
2022-12-15T20:54:14.895Z,2.84
2022-12-15T20:56:43.022Z,2.85
2022-12-15T20:59:10.072Z,2.82
2022-12-15T21:01:39.108Z,2.73
2022-12-15T21:04:21.067Z,2.74
2022-12-15T21:06:54.314Z,2.72
2022-12-15T21:09:21.614Z,2.72
2022-12-15T21:11:48.561Z,2.76
2022-12-15T21:14:19.681Z,2.76
2022-12-15T21:16:46.741Z,2.72
2022-12-15T21:19:20.767Z,2.69
2022-12-15T21:21:52.048Z,2.70
2022-12-15T21:24:24.005Z,2.54
2022-12-15T21:26:52.087Z,2.54
2022-12-15T21:29:20.525Z,2.50
2022-12-15T21:31:47.207Z,2.49
2022-12-15T21:34:14.514Z,2.46
2022-12-15T21:36:43.207Z,2.48
2022-12-15T21:39:13.391Z,2.46
2022-12-15T21:41:41.814Z,2.53
2022-12-15T21:44:15.165Z,2.60
2022-12-15T21:46:42.308Z,2.54
2022-12-15T21:49:15.975Z,2.48
2022-12-15T21:51:44.472Z,2.45
2022-12-15T21:54:16.729Z,2.41
2022-12-15T21:56:43.783Z,2.44
2022-12-15T21:59:12.939Z,2.48
2022-12-15T22:01:39.796Z,2.42
2022-12-15T22:04:12.213Z,2.47
2022-12-15T22:06:39.062Z,2.49
2022-12-15T22:09:05.923Z,2.48
2022-12-15T22:11:32.694Z,2.42
2022-12-15T22:14:01.528Z,2.38
2022-12-15T22:16:28.710Z,2.50
2022-12-15T22:18:56.113Z,2.46
2022-12-15T22:21:23.930Z,2.51
2022-12-15T22:23:51.340Z,2.41
2022-12-15T22:26:22.508Z,2.38
2022-12-15T22:28:50.289Z,2.38
2022-12-15T22:31:17.584Z,2.42
2022-12-15T22:33:44.562Z,2.38
2022-12-15T22:36:11.360Z,2.44
2022-12-15T22:38:38.485Z,2.45
2022-12-15T22:41:07.056Z,2.45
2022-12-15T22:43:41.210Z,2.45
2022-12-15T22:46:10.983Z,2.44
2022-12-15T22:48:40.073Z,2.45
2022-12-15T22:51:06.911Z,2.50
2022-12-15T22:53:34.933Z,2.47
2022-12-15T22:56:04.548Z,2.52
2022-12-15T22:58:35.575Z,2.51
2022-12-15T23:01:04.146Z,2.51
2022-12-15T23:03:31.297Z,2.54
2022-12-15T23:05:58.929Z,2.48
2022-12-15T23:08:25.734Z,2.40
2022-12-15T23:11:11.050Z,2.33
2022-12-15T23:13:37.971Z,2.45
2022-12-15T23:16:23.301Z,2.30
2022-12-15T23:18:54.740Z,2.35
2022-12-15T23:21:25.326Z,2.29
2022-12-15T23:23:52.131Z,2.27
2022-12-15T23:26:19.642Z,2.15
2022-12-15T23:28:46.641Z,2.26
2022-12-15T23:31:13.847Z,2.36
2022-12-15T23:33:41.900Z,2.34
2022-12-15T23:36:09.318Z,2.39
2022-12-15T23:38:36.107Z,2.43
2022-12-15T23:41:02.909Z,2.49
2022-12-15T23:43:31.379Z,2.75
2022-12-15T23:46:07.470Z,2.84
2022-12-15T23:48:39.867Z,2.95
2022-12-15T23:51:08.999Z,3.08
2022-12-15T23:53:36.311Z,3.24
2022-12-15T23:56:06.594Z,3.37
2022-12-15T23:58:33.509Z,3.69
